LiveATC.Net - Listen to live air traffic control over the Internet!


ICAO: KRVS  IATA: RVS   Airport: Richard Lloyd Jones Jr Airport
City: Tulsa   State/Province: Oklahoma
Country: United States   Continent: North America
KRVS METAR Weather: KRVS 281153Z AUTO 00000KT 10SM CLR 17/14 A2990 RMK AO2 SLP127 T01670139 10194 20150 53009
KRVS Flight Activity (FlightAware)
KRVS Webcam:  (Airport Webcams) 
KRVS Airport Info   (iFlightPlanner)
KRVS VFR Sectional Chart   (iFlightPlanner) 
KRVS IFR Low Altitude Chart   (iFlightPlanner) 
KRVS IFR High Altitude Chart   (iFlightPlanner) 

KRVS Ground/Tower
Feed Status: UP   Listeners: 0
Listen in your browser - HTML5 player (in browser, HTML5)
Click here to listen with your own player (launches your MP3 player)
Archive Access: KRVS Ground/Tower
FacilityFrequency
Riverside Ground121.700
Riverside Tower (East)119.200
Riverside Tower (West)120.300

NOTICE

Unauthorized use prohibited. See LiveATC.net Terms of Service


Airport/ARTCC Code
Frequency Search
(e.g., 124.400, 128.75)
Site-wide search
 


Browse Feeds
Top 50 Feeds
HF Oceanic Feeds
Coverage Map
Bad Weather Areas

LiveATC FAQ
Offer LiveATC feed
Contact LiveATC.net
Press Inquiries

LiveATC on iPhone
LiveATC on Android

LiveATC Mobile
(Mobile browser)

ATC Audio Archives
Interesting Recordings

LiveATC Forums


Home Page
About LiveATC.net


Terms of Use
Privacy Policy

AIRMETs/SIGMETs

FAA Airport Status
NAS Status
Arrival Demand


Server Software By:
Icecast.org
Liquidsoap